createdAt,value
2019-04-06T00:00:38.244Z,17.60
2019-04-06T00:03:06.259Z,17.56
2019-04-06T00:05:37.881Z,17.57
2019-04-06T00:08:05.878Z,17.53
2019-04-06T00:10:33.621Z,17.50
2019-04-06T00:13:01.800Z,17.53
2019-04-06T00:15:29.706Z,17.54
2019-04-06T00:17:57.472Z,17.14
2019-04-06T00:20:25.646Z,17.23
2019-04-06T00:22:53.371Z,17.21
2019-04-06T00:25:21.087Z,16.93
2019-04-06T00:27:48.846Z,17.01
2019-04-06T00:30:16.842Z,17.18
2019-04-06T00:33:03.358Z,17.25
2019-04-06T00:35:35.652Z,17.29
2019-04-06T00:38:00.990Z,17.23
2019-04-06T00:40:29.006Z,17.34
2019-04-06T00:42:56.715Z,17.29
2019-04-06T00:45:24.671Z,17.29
2019-04-06T00:47:52.426Z,17.29
2019-04-06T00:50:20.178Z,17.33
2019-04-06T00:52:48.095Z,16.99
2019-04-06T00:55:15.761Z,17.28
2019-04-06T00:57:43.578Z,17.30
2019-04-06T01:00:11.378Z,17.38
2019-04-06T01:02:39.163Z,17.29
2019-04-06T01:05:06.926Z,17.38
2019-04-06T01:07:34.752Z,17.28
2019-04-06T01:10:02.578Z,17.30
2019-04-06T01:12:30.327Z,17.30
2019-04-06T01:14:58.150Z,17.21
2019-04-06T01:17:26.945Z,17.20
2019-04-06T01:19:54.822Z,17.16
2019-04-06T01:22:22.641Z,17.03
2019-04-06T01:24:50.369Z,17.22
2019-04-06T01:27:18.213Z,17.19
2019-04-06T01:29:46.062Z,17.20
2019-04-06T01:32:13.831Z,17.13
2019-04-06T01:34:41.747Z,17.14
2019-04-06T01:37:09.574Z,16.50
2019-04-06T01:39:37.345Z,17.21
2019-04-06T01:42:05.154Z,16.95
2019-04-06T01:44:33.097Z,16.50
2019-04-06T01:47:00.815Z,16.71
2019-04-06T01:49:28.630Z,16.75
2019-04-06T01:51:56.518Z,16.97
2019-04-06T01:54:24.374Z,16.96
2019-04-06T01:56:52.265Z,17.15
2019-04-06T01:59:19.981Z,17.11
2019-04-06T02:01:55.199Z,17.10
2019-04-06T02:04:26.026Z,17.02
2019-04-06T02:06:53.839Z,17.00
2019-04-06T02:09:21.686Z,17.04
2019-04-06T02:11:49.462Z,17.00
2019-04-06T02:14:17.212Z,16.96
2019-04-06T02:16:45.039Z,16.84
2019-04-06T02:19:12.887Z,16.80
2019-04-06T02:21:40.735Z,16.85
2019-04-06T02:24:08.530Z,16.66
2019-04-06T02:26:36.358Z,17.02
2019-04-06T02:29:04.486Z,17.06
2019-04-06T02:31:52.597Z,17.00
2019-04-06T02:34:46.400Z,16.94
2019-04-06T02:37:31.072Z,17.10
2019-04-06T02:40:08.219Z,16.91
2019-04-06T02:42:45.559Z,16.92
2019-04-06T02:45:13.278Z,16.89
2019-04-06T02:47:41.104Z,16.99
2019-04-06T02:50:08.928Z,16.94
2019-04-06T02:52:36.734Z,16.85
2019-04-06T02:55:04.549Z,16.85
2019-04-06T02:57:32.426Z,16.98
2019-04-06T03:00:00.155Z,16.88
2019-04-06T03:02:27.863Z,16.75
2019-04-06T03:04:55.643Z,16.89
2019-04-06T03:07:23.373Z,16.92
2019-04-06T03:09:51.101Z,16.87
2019-04-06T03:12:18.799Z,16.89
2019-04-06T03:14:46.587Z,16.88
2019-04-06T03:17:14.331Z,16.85
2019-04-06T03:19:42.081Z,16.87
2019-04-06T03:22:09.873Z,16.76
2019-04-06T03:24:37.752Z,16.89
2019-04-06T03:27:08.714Z,16.81
2019-04-06T03:29:36.562Z,16.76
2019-04-06T03:32:04.405Z,16.98
2019-04-06T03:34:32.269Z,16.99
2019-04-06T03:37:00.122Z,17.07
2019-04-06T03:39:27.933Z,16.94
2019-04-06T03:41:55.748Z,16.95
2019-04-06T03:44:23.450Z,17.03
2019-04-06T03:46:51.255Z,16.93
2019-04-06T03:49:19.059Z,16.99
2019-04-06T03:51:46.839Z,17.00
2019-04-06T03:54:14.562Z,16.79
2019-04-06T03:56:42.543Z,16.86
2019-04-06T03:59:10.328Z,16.88
2019-04-06T04:01:38.045Z,16.50
2019-04-06T04:04:06.060Z,16.86
2019-04-06T04:06:36.176Z,16.82
2019-04-06T04:09:05.496Z,16.91
2019-04-06T04:11:33.316Z,16.71
2019-04-06T04:14:01.268Z,16.66
2019-04-06T04:16:28.976Z,16.65
2019-04-06T04:18:56.695Z,16.67
2019-04-06T04:21:24.506Z,16.49
2019-04-06T04:23:52.223Z,16.48
2019-04-06T04:26:19.959Z,16.47
2019-04-06T04:28:47.776Z,16.61
2019-04-06T04:31:15.517Z,16.29
2019-04-06T04:33:43.227Z,16.56
2019-04-06T04:36:10.945Z,16.57
2019-04-06T04:38:38.871Z,16.50
2019-04-06T04:41:06.607Z,16.46
2019-04-06T04:43:34.517Z,16.67
2019-04-06T04:46:05.604Z,16.75
2019-04-06T04:48:35.547Z,16.56
2019-04-06T04:51:03.340Z,16.55
2019-04-06T04:53:31.047Z,16.60
2019-04-06T04:55:58.872Z,16.73
2019-04-06T04:58:26.618Z,16.64
2019-04-06T05:00:54.359Z,16.65
2019-04-06T05:03:22.075Z,16.62
2019-04-06T05:05:49.778Z,16.27
2019-04-06T05:08:17.495Z,16.61
2019-04-06T05:10:45.244Z,16.50
2019-04-06T05:13:13.047Z,16.44
2019-04-06T05:16:00.679Z,16.53
2019-04-06T05:18:28.771Z,16.76
2019-04-06T05:20:59.596Z,16.14
2019-04-06T05:23:29.506Z,15.50
2019-04-06T05:25:57.228Z,16.31
2019-04-06T05:28:24.958Z,16.62
2019-04-06T05:30:52.660Z,16.69
2019-04-06T05:33:20.439Z,16.39
2019-04-06T05:35:48.178Z,15.65
2019-04-06T05:38:15.954Z,15.51
2019-04-06T05:40:43.701Z,15.30
2019-04-06T05:43:11.418Z,15.00
2019-04-06T05:45:39.138Z,15.48
2019-04-06T05:48:06.909Z,15.61
2019-04-06T05:50:34.732Z,15.76
2019-04-06T05:53:02.514Z,15.53
2019-04-06T05:55:30.216Z,15.13
2019-04-06T05:58:04.192Z,15.25
2019-04-06T06:00:27.734Z,15.68
2019-04-06T06:02:55.459Z,15.92
2019-04-06T06:05:27.247Z,15.07
2019-04-06T06:07:54.973Z,14.62
2019-04-06T06:10:22.701Z,15.24
2019-04-06T06:12:50.415Z,16.10
2019-04-06T06:15:18.152Z,15.55
2019-04-06T06:17:53.763Z,15.64
2019-04-06T06:20:30.852Z,15.71
2019-04-06T06:26:15.408Z,16.18
2019-04-06T06:28:43.103Z,16.59
2019-04-06T06:31:10.863Z,17.08
2019-04-06T06:33:38.894Z,17.03
2019-04-06T06:36:06.642Z,17.11
2019-04-06T06:38:34.430Z,17.12
2019-04-06T06:41:02.978Z,17.31
2019-04-06T06:43:30.850Z,17.03
2019-04-06T06:45:58.742Z,16.98
2019-04-06T06:48:35.577Z,17.06
2019-04-06T06:51:04.372Z,17.14
2019-04-06T06:53:32.106Z,17.02
2019-04-06T06:55:59.932Z,17.10
2019-04-06T06:58:27.685Z,16.68
2019-04-06T07:00:55.559Z,17.23
2019-04-06T07:03:23.383Z,17.30
2019-04-06T07:05:51.237Z,17.33
2019-04-06T07:08:19.559Z,17.36
2019-04-06T07:10:47.367Z,17.53
2019-04-06T07:13:15.319Z,17.14
2019-04-06T07:15:43.512Z,17.07
2019-04-06T07:18:11.554Z,17.33
2019-04-06T07:20:39.811Z,17.20
2019-04-06T07:23:22.672Z,16.96
2019-04-06T07:25:57.718Z,16.99
2019-04-06T07:28:20.386Z,17.23
2019-04-06T07:30:49.075Z,17.34
2019-04-06T07:33:16.884Z,17.46
2019-04-06T07:35:44.682Z,17.28
2019-04-06T07:38:12.394Z,17.44
2019-04-06T07:40:40.108Z,17.42
2019-04-06T07:43:07.991Z,17.66
2019-04-06T07:45:36.017Z,17.79
2019-04-06T07:48:03.794Z,17.65
2019-04-06T07:50:31.515Z,17.83
2019-04-06T07:52:59.255Z,17.64
2019-04-06T07:55:27.275Z,17.84
2019-04-06T07:57:55.142Z,17.71
2019-04-06T08:00:29.580Z,17.86
2019-04-06T08:02:57.466Z,17.99
2019-04-06T08:05:25.558Z,17.93
2019-04-06T08:07:53.562Z,17.83
2019-04-06T08:10:21.480Z,17.92
2019-04-06T08:12:49.295Z,17.56
2019-04-06T08:15:17.603Z,18.12
2019-04-06T08:17:45.420Z,18.11
2019-04-06T08:20:13.321Z,18.15
2019-04-06T08:22:42.133Z,18.15
2019-04-06T08:25:10.520Z,17.83
2019-04-06T08:27:38.275Z,18.01
2019-04-06T08:30:06.937Z,18.15
2019-04-06T08:32:34.757Z,17.95
2019-04-06T08:35:03.019Z,18.08
2019-04-06T08:37:31.031Z,18.10
2019-04-06T08:40:01.078Z,17.97
2019-04-06T08:42:31.359Z,18.00
2019-04-06T08:44:59.081Z,17.50
2019-04-06T08:47:28.687Z,18.28
2019-04-06T08:49:56.510Z,18.34
2019-04-06T08:52:24.226Z,18.26
2019-04-06T08:54:52.357Z,18.03
2019-04-06T08:57:22.500Z,18.50
2019-04-06T09:00:11.437Z,18.61
2019-04-06T09:02:39.232Z,18.26
2019-04-06T09:05:07.028Z,17.91
2019-04-06T09:07:43.834Z,17.99
2019-04-06T09:10:11.568Z,18.05
2019-04-06T09:12:39.406Z,18.37
2019-04-06T09:15:07.233Z,18.25
2019-04-06T09:17:34.983Z,18.35
2019-04-06T09:20:02.793Z,18.43
2019-04-06T09:22:30.891Z,18.34
2019-04-06T09:24:58.800Z,18.51
2019-04-06T09:27:26.758Z,18.46
2019-04-06T09:29:54.497Z,18.48
2019-04-06T09:32:22.293Z,18.47
2019-04-06T09:34:50.152Z,18.53
2019-04-06T09:37:18.042Z,18.46
2019-04-06T09:39:45.796Z,18.49
2019-04-06T09:42:13.914Z,18.59
2019-04-06T09:44:53.907Z,18.54
2019-04-06T09:47:32.836Z,18.70
2019-04-06T09:50:18.359Z,18.63
2019-04-06T09:53:08.263Z,18.65
2019-04-06T09:55:53.054Z,18.73
2019-04-06T09:58:39.891Z,18.78
2019-04-06T10:01:38.932Z,18.77
2019-04-06T10:04:23.117Z,18.82
2019-04-06T10:07:09.659Z,18.82
2019-04-06T10:09:47.875Z,18.84
2019-04-06T10:12:34.290Z,18.84
2019-04-06T10:15:31.544Z,18.94
2019-04-06T10:18:27.731Z,18.94
2019-04-06T10:21:06.707Z,19.00
2019-04-06T10:23:43.920Z,19.01
2019-04-06T10:26:31.040Z,18.83
2019-04-06T10:29:18.194Z,19.06
2019-04-06T10:32:14.273Z,19.12
2019-04-06T10:35:01.515Z,19.01
2019-04-06T10:37:57.643Z,19.19
2019-04-06T10:40:35.478Z,19.17
2019-04-06T10:43:20.940Z,19.28
2019-04-06T10:46:23.043Z,19.25
2019-04-06T10:48:57.052Z,19.31
2019-04-06T10:51:35.394Z,19.39
2019-04-06T10:54:31.234Z,18.99
2019-04-06T10:57:07.047Z,19.45
2019-04-06T11:00:00.921Z,19.46
2019-04-06T11:02:51.516Z,19.43
2019-04-06T11:05:30.156Z,19.45
2019-04-06T11:08:12.078Z,19.53
2019-04-06T11:10:57.920Z,19.56
2019-04-06T11:13:50.441Z,19.59
2019-04-06T11:16:28.066Z,19.63
2019-04-06T11:19:09.366Z,19.73
2019-04-06T11:21:56.211Z,19.64
2019-04-06T11:27:41.629Z,19.80
2019-04-06T11:30:37.590Z,19.81
2019-04-06T11:33:27.860Z,19.21
2019-04-06T11:36:26.283Z,19.88
2019-04-06T11:39:13.071Z,19.94
2019-04-06T11:41:50.600Z,20.10
2019-04-06T11:44:55.708Z,20.14
2019-04-06T11:47:41.483Z,20.10
2019-04-06T11:50:21.840Z,20.10
2019-04-06T11:53:24.023Z,20.20
2019-04-06T11:56:25.989Z,20.28
2019-04-06T11:59:15.631Z,20.31
2019-04-06T12:01:54.502Z,20.36
2019-04-06T12:04:50.228Z,20.37
2019-04-06T12:07:36.983Z,20.39
2019-04-06T12:10:24.002Z,20.41
2019-04-06T12:13:09.639Z,20.45
2019-04-06T12:15:55.605Z,20.56
2019-04-06T12:18:28.822Z,20.60
2019-04-06T12:21:14.186Z,20.63
2019-04-06T12:23:56.194Z,20.58
2019-04-06T12:26:48.859Z,20.65
2019-04-06T12:29:34.235Z,20.64
2019-04-06T12:32:22.510Z,20.63
2019-04-06T12:35:21.746Z,20.73
2019-04-06T12:38:20.748Z,20.88
2019-04-06T12:41:03.172Z,20.89
2019-04-06T12:43:50.024Z,20.96
2019-04-06T12:46:36.916Z,21.04
2019-04-06T12:49:13.435Z,21.10
2019-04-06T12:52:15.789Z,21.03
2019-04-06T12:55:02.699Z,21.06
2019-04-06T12:57:46.237Z,21.33
2019-04-06T13:00:20.499Z,21.20
2019-04-06T13:03:16.496Z,21.20
2019-04-06T13:05:50.237Z,21.12
2019-04-06T13:08:32.784Z,21.20
2019-04-06T13:11:30.449Z,21.04
2019-04-06T13:14:21.353Z,21.32
2019-04-06T13:17:07.238Z,21.21
2019-04-06T13:20:06.162Z,21.34
2019-04-06T13:23:08.947Z,21.46
2019-04-06T13:26:01.741Z,21.48
2019-04-06T13:31:46.755Z,21.41
2019-04-06T13:34:59.458Z,20.26
2019-04-06T13:37:54.967Z,21.50
2019-04-06T13:40:42.693Z,21.58
2019-04-06T13:43:29.017Z,21.75
2019-04-06T13:46:10.505Z,21.72
2019-04-06T13:49:06.691Z,21.70
2019-04-06T13:52:02.486Z,21.71
2019-04-06T13:54:48.666Z,21.76
2019-04-06T13:57:54.412Z,21.81
2019-04-06T14:00:56.497Z,21.91
2019-04-06T14:03:43.946Z,21.81
2019-04-06T14:06:21.665Z,21.88
2019-04-06T14:09:07.399Z,22.03
2019-04-06T14:15:34.985Z,22.04
2019-04-06T14:18:21.049Z,21.93
2019-04-06T14:21:14.082Z,21.93
2019-04-06T14:24:04.269Z,22.02
2019-04-06T14:27:09.743Z,22.02
2019-04-06T14:29:51.736Z,22.09
2019-04-06T14:32:37.863Z,21.99
2019-04-06T14:35:18.758Z,22.07
2019-04-06T14:38:04.540Z,22.04
2019-04-06T14:40:50.400Z,22.14
2019-04-06T14:43:45.375Z,21.86
2019-04-06T14:46:38.395Z,22.25
2019-04-06T14:49:30.831Z,22.26
2019-04-06T14:52:08.059Z,22.26
2019-04-06T14:54:56.968Z,22.27
2019-04-06T14:57:38.451Z,22.17
2019-04-06T15:00:30.145Z,22.21
2019-04-06T15:03:18.198Z,22.36
2019-04-06T15:06:08.554Z,22.38
2019-04-06T15:11:56.112Z,22.21
2019-04-06T15:14:36.322Z,22.34
2019-04-06T15:19:49.174Z,22.23
2019-04-06T15:22:26.077Z,22.32
2019-04-06T15:25:04.723Z,22.39
2019-04-06T15:27:57.809Z,22.26
2019-04-06T15:30:43.663Z,22.47
2019-04-06T15:33:31.427Z,22.40
2019-04-06T15:36:21.941Z,22.52
2019-04-06T15:39:13.578Z,22.38
2019-04-06T15:42:03.716Z,22.41
2019-04-06T15:44:42.489Z,22.47
2019-04-06T15:47:28.486Z,22.21
2019-04-06T15:50:18.826Z,22.39
2019-04-06T15:53:16.199Z,22.52
2019-04-06T15:56:02.104Z,23.06
2019-04-06T15:58:35.838Z,22.61
2019-04-06T16:01:38.285Z,22.69
2019-04-06T16:04:13.963Z,22.66
2019-04-06T16:06:59.453Z,22.63
2019-04-06T16:09:48.565Z,22.54
2019-04-06T16:12:47.671Z,22.04
2019-04-06T16:15:28.950Z,22.59
2019-04-06T16:18:14.569Z,22.57
2019-04-06T16:21:01.500Z,22.62
2019-04-06T16:23:39.193Z,22.56
2019-04-06T16:26:32.125Z,22.47
2019-04-06T16:29:18.020Z,22.49
2019-04-06T16:32:17.699Z,22.50
2019-04-06T16:35:21.315Z,22.53
2019-04-06T16:37:57.565Z,22.42
2019-04-06T16:40:46.252Z,22.52
2019-04-06T16:43:22.903Z,22.53
2019-04-06T16:46:06.545Z,22.48
2019-04-06T16:49:07.678Z,22.49
2019-04-06T16:51:42.055Z,22.56
2019-04-06T16:54:26.058Z,22.44
2019-04-06T16:57:00.659Z,22.45
2019-04-06T16:59:59.195Z,22.21
2019-04-06T17:02:44.864Z,21.86
2019-04-06T17:05:22.292Z,22.32
2019-04-06T17:08:15.897Z,22.26
2019-04-06T17:10:59.713Z,21.62
2019-04-06T17:13:34.924Z,22.24
2019-04-06T17:16:15.842Z,22.37
2019-04-06T17:18:53.702Z,22.30
2019-04-06T17:21:47.051Z,22.21
2019-04-06T17:24:30.416Z,22.20
2019-04-06T17:27:16.202Z,22.20
2019-04-06T17:30:07.363Z,22.06
2019-04-06T17:32:53.299Z,22.02
2019-04-06T17:35:27.518Z,21.90
2019-04-06T17:38:06.134Z,22.07
2019-04-06T17:40:51.197Z,21.90
2019-04-06T17:43:47.508Z,21.75
2019-04-06T17:46:38.287Z,21.58
2019-04-06T17:49:17.380Z,21.84
2019-04-06T17:51:54.455Z,21.75
2019-04-06T17:54:32.535Z,21.86
2019-04-06T17:57:07.449Z,21.74
2019-04-06T17:59:53.041Z,21.56
2019-04-06T18:02:50.919Z,21.63
2019-04-06T18:05:49.034Z,21.59
2019-04-06T18:08:32.289Z,21.34
2019-04-06T18:11:18.209Z,21.03
2019-04-06T18:13:48.183Z,21.30
2019-04-06T18:16:16.363Z,21.30
2019-04-06T18:18:44.188Z,21.21
2019-04-06T18:21:11.956Z,21.27
2019-04-06T18:23:47.561Z,21.04
2019-04-06T18:26:12.503Z,20.42
2019-04-06T18:28:40.790Z,20.88
2019-04-06T18:31:42.871Z,20.94
2019-04-06T18:34:10.671Z,20.81
2019-04-06T18:37:00.413Z,20.41
2019-04-06T18:39:28.321Z,20.18
2019-04-06T18:41:56.399Z,19.95
2019-04-06T18:44:24.424Z,19.89
2019-04-06T18:46:52.147Z,20.36
2019-04-06T18:49:20.114Z,19.71
2019-04-06T18:51:47.919Z,19.48
2019-04-06T18:54:15.683Z,19.39
2019-04-06T18:56:43.924Z,19.92
2019-04-06T18:59:11.677Z,19.82
2019-04-06T19:01:39.387Z,20.11
2019-04-06T19:04:07.086Z,19.66
2019-04-06T19:06:35.075Z,19.73
2019-04-06T19:09:04.714Z,20.13
2019-04-06T19:11:32.521Z,19.55
2019-04-06T19:14:01.227Z,19.98
2019-04-06T19:16:36.823Z,20.00
2019-04-06T19:19:04.551Z,20.64
2019-04-06T19:21:33.053Z,20.70
2019-04-06T19:24:00.931Z,19.94
2019-04-06T19:26:28.845Z,19.71
2019-04-06T19:28:57.248Z,19.21
2019-04-06T19:31:25.076Z,18.84
2019-04-06T19:33:52.885Z,18.68
2019-04-06T19:36:20.683Z,19.07
2019-04-06T19:38:48.505Z,19.06
2019-04-06T19:41:38.412Z,19.23
2019-04-06T19:44:07.243Z,19.29
2019-04-06T19:46:35.190Z,20.27
2019-04-06T19:49:02.987Z,20.45
2019-04-06T19:51:30.924Z,19.26
2019-04-06T19:53:58.656Z,19.89
2019-04-06T19:56:26.515Z,19.37
2019-04-06T19:58:54.758Z,19.75
2019-04-06T20:01:22.848Z,19.43
2019-04-06T20:03:51.115Z,19.48
2019-04-06T20:06:19.071Z,18.78
2019-04-06T20:08:46.850Z,19.29
2019-04-06T20:11:14.614Z,19.13
2019-04-06T20:13:42.397Z,19.45
2019-04-06T20:16:10.209Z,19.53
2019-04-06T20:18:37.953Z,19.45
2019-04-06T20:21:06.058Z,19.59
2019-04-06T20:23:36.339Z,19.25
2019-04-06T20:26:06.587Z,19.28
2019-04-06T20:28:34.302Z,18.97
2019-04-06T20:31:02.426Z,18.69
2019-04-06T20:33:30.511Z,18.56
2019-04-06T20:35:58.733Z,18.16
2019-04-06T20:38:26.669Z,18.55
2019-04-06T20:40:54.865Z,18.86
2019-04-06T20:43:22.906Z,18.39
2019-04-06T20:45:51.072Z,18.41
2019-04-06T20:48:19.330Z,18.61
2019-04-06T20:50:47.138Z,18.23
2019-04-06T20:53:14.962Z,18.51
2019-04-06T20:55:43.099Z,18.23
2019-04-06T20:58:12.135Z,17.96
2019-04-06T21:00:41.557Z,18.19
2019-04-06T21:03:09.655Z,18.10
2019-04-06T21:05:39.512Z,17.90
2019-04-06T21:08:07.232Z,18.04
2019-04-06T21:10:35.053Z,17.96
2019-04-06T21:13:03.306Z,18.19
2019-04-06T21:15:31.125Z,18.08
2019-04-06T21:17:58.839Z,17.62
2019-04-06T21:20:26.576Z,17.30
2019-04-06T21:22:54.348Z,16.99
2019-04-06T21:25:22.238Z,17.28
2019-04-06T21:27:49.958Z,17.56
2019-04-06T21:30:18.160Z,17.68
2019-04-06T21:32:46.449Z,17.55
2019-04-06T21:35:14.707Z,17.05
2019-04-06T21:37:42.564Z,17.47
2019-04-06T21:40:10.486Z,17.93
2019-04-06T21:42:42.281Z,18.24
2019-04-06T21:45:14.031Z,18.02
2019-04-06T21:47:41.858Z,17.61
2019-04-06T21:50:10.152Z,17.51
2019-04-06T21:52:38.679Z,18.18
2019-04-06T21:55:07.136Z,17.47
2019-04-06T21:57:45.521Z,17.26
2019-04-06T22:00:16.774Z,17.25
2019-04-06T22:02:44.744Z,17.81
2019-04-06T22:05:12.677Z,17.40
2019-04-06T22:07:48.075Z,17.45
2019-04-06T22:10:10.552Z,17.66
2019-04-06T22:12:41.677Z,17.51
2019-04-06T22:15:10.474Z,16.93
2019-04-06T22:17:39.844Z,17.42
2019-04-06T22:20:36.200Z,17.62
2019-04-06T22:23:01.669Z,17.57
2019-04-06T22:25:29.995Z,17.37
2019-04-06T22:27:58.433Z,16.94
2019-04-06T22:30:26.835Z,17.35
2019-04-06T22:32:55.042Z,17.02
2019-04-06T22:35:24.756Z,17.62
2019-04-06T22:37:55.240Z,17.70
2019-04-06T22:40:23.474Z,17.49
2019-04-06T22:42:51.487Z,17.67
2019-04-06T22:45:20.402Z,17.44
2019-04-06T22:47:48.108Z,17.26
2019-04-06T22:50:16.408Z,17.05
2019-04-06T22:52:44.617Z,17.23
2019-04-06T22:55:12.986Z,17.87
2019-04-06T22:57:40.984Z,17.87
2019-04-06T23:00:10.163Z,17.24
2019-04-06T23:02:47.543Z,17.65
2019-04-06T23:05:23.411Z,17.91
2019-04-06T23:07:53.545Z,17.89
2019-04-06T23:10:21.313Z,17.91
2019-04-06T23:12:51.883Z,17.56
2019-04-06T23:15:19.639Z,17.77
2019-04-06T23:17:47.679Z,18.06
2019-04-06T23:20:15.506Z,18.05
2019-04-06T23:22:43.459Z,17.83
2019-04-06T23:25:11.788Z,17.78
2019-04-06T23:27:39.833Z,18.02
2019-04-06T23:30:08.772Z,17.89
2019-04-06T23:32:36.639Z,17.80
2019-04-06T23:35:04.757Z,17.80
2019-04-06T23:37:33.369Z,17.27
2019-04-06T23:40:02.157Z,17.48
2019-04-06T23:42:31.236Z,17.86
2019-04-06T23:45:03.566Z,17.55
2019-04-06T23:47:28.804Z,17.54
2019-04-06T23:49:56.636Z,17.83
2019-04-06T23:52:24.490Z,17.56
2019-04-06T23:54:52.326Z,17.71
2019-04-06T23:57:20.868Z,17.55
2019-04-06T23:59:48.941Z,17.34
